createdAt,value
2022-11-17T00:02:13.210Z,8.60
2022-11-17T00:04:41.078Z,8.60
2022-11-17T00:07:08.950Z,8.60
2022-11-17T00:09:36.825Z,8.60
2022-11-17T00:12:22.972Z,8.60
2022-11-17T00:14:52.485Z,8.60
2022-11-17T00:17:20.428Z,8.60
2022-11-17T00:20:05.922Z,8.60
2022-11-17T00:22:33.860Z,8.70
2022-11-17T00:25:01.830Z,8.70
2022-11-17T00:27:29.770Z,8.70
2022-11-17T00:29:58.941Z,8.70
2022-11-17T00:32:44.380Z,8.70
2022-11-17T00:35:12.241Z,8.70
2022-11-17T00:38:02.065Z,8.70
2022-11-17T00:40:30.430Z,8.70
2022-11-17T00:42:58.284Z,8.70
2022-11-17T00:45:28.194Z,8.70
2022-11-17T00:47:56.044Z,8.70
2022-11-17T00:50:24.177Z,8.70
2022-11-17T00:52:52.030Z,8.70
2022-11-17T00:55:19.951Z,8.70
2022-11-17T00:57:47.832Z,8.70
2022-11-17T01:00:16.079Z,8.70
2022-11-17T01:02:45.308Z,8.70
2022-11-17T01:05:13.198Z,8.70
2022-11-17T01:07:41.121Z,8.80
2022-11-17T01:10:10.012Z,8.70
2022-11-17T01:12:37.874Z,8.70
2022-11-17T01:15:06.187Z,8.70
2022-11-17T01:17:34.102Z,8.70
2022-11-17T01:20:03.572Z,8.80
2022-11-17T01:22:31.437Z,8.70
2022-11-17T01:24:59.269Z,8.70
2022-11-17T01:27:27.082Z,8.80
2022-11-17T01:29:54.928Z,8.80
2022-11-17T01:32:22.779Z,8.80
2022-11-17T01:34:50.656Z,8.80
2022-11-17T01:37:22.581Z,8.80
2022-11-17T01:39:51.184Z,8.80
2022-11-17T01:42:21.759Z,8.80
2022-11-17T01:45:01.484Z,8.80
2022-11-17T01:47:38.411Z,8.80
2022-11-17T01:50:12.813Z,8.80
2022-11-17T01:52:43.133Z,8.90
2022-11-17T01:55:12.143Z,8.80
2022-11-17T01:57:45.765Z,8.80
2022-11-17T02:00:14.496Z,8.80
2022-11-17T02:02:44.461Z,8.90
2022-11-17T02:05:21.251Z,8.90
2022-11-17T02:07:53.185Z,8.90
2022-11-17T02:10:21.174Z,8.90
2022-11-17T02:12:49.685Z,8.90
2022-11-17T02:15:17.703Z,8.90
2022-11-17T02:17:45.637Z,8.90
2022-11-17T02:20:16.110Z,9.00
2022-11-17T02:23:04.337Z,8.90
2022-11-17T02:25:54.319Z,9.00
2022-11-17T02:28:27.348Z,9.00
2022-11-17T02:31:12.956Z,9.00
2022-11-17T02:33:50.938Z,9.00
2022-11-17T02:36:21.975Z,9.00
2022-11-17T02:38:56.753Z,9.00
2022-11-17T02:41:31.143Z,9.00
2022-11-17T02:44:07.456Z,9.00
2022-11-17T02:46:45.121Z,9.00
2022-11-17T02:49:19.761Z,9.00
2022-11-17T02:51:51.391Z,9.00
2022-11-17T02:54:20.736Z,9.10
2022-11-17T02:56:48.602Z,9.10
2022-11-17T02:59:19.818Z,9.00
2022-11-17T03:02:21.317Z,9.10
2022-11-17T03:05:03.493Z,9.00
2022-11-17T03:07:47.356Z,9.00
2022-11-17T03:10:18.398Z,9.00
2022-11-17T03:12:54.863Z,9.00
2022-11-17T03:15:29.996Z,9.00
2022-11-17T03:18:05.406Z,8.90
2022-11-17T03:20:40.240Z,8.90
2022-11-17T03:23:13.428Z,8.90
2022-11-17T03:25:46.144Z,8.90
2022-11-17T03:28:16.690Z,8.90
2022-11-17T03:30:48.526Z,8.90
2022-11-17T03:33:20.294Z,8.90
2022-11-17T03:35:52.004Z,8.90
2022-11-17T03:38:23.517Z,9.00
2022-11-17T03:40:53.776Z,8.90
2022-11-17T03:43:22.179Z,9.00
2022-11-17T03:45:55.017Z,9.00
2022-11-17T03:48:29.693Z,9.00
2022-11-17T03:51:04.566Z,9.10
2022-11-17T03:53:33.364Z,9.10
2022-11-17T03:56:09.160Z,9.10
2022-11-17T03:58:44.056Z,9.20
2022-11-17T04:01:14.644Z,9.20
2022-11-17T04:03:42.577Z,9.20
2022-11-17T04:06:10.503Z,9.30
2022-11-17T04:08:38.351Z,9.30
2022-11-17T04:11:24.093Z,9.30
2022-11-17T04:14:09.695Z,9.30
2022-11-17T04:16:38.896Z,9.40
2022-11-17T04:19:06.761Z,9.40
2022-11-17T04:21:34.625Z,9.40
2022-11-17T04:24:02.695Z,9.40
2022-11-17T04:26:48.216Z,9.40
2022-11-17T04:29:16.277Z,9.50
2022-11-17T04:31:45.635Z,9.50
2022-11-17T04:34:13.468Z,9.50
2022-11-17T04:36:44.301Z,9.50
2022-11-17T04:39:13.416Z,9.50
2022-11-17T04:42:03.236Z,9.60
2022-11-17T04:44:32.450Z,9.60
2022-11-17T04:47:03.001Z,9.70
2022-11-17T04:49:32.967Z,9.70
2022-11-17T04:52:01.130Z,9.80
2022-11-17T04:54:29.085Z,9.80
2022-11-17T04:56:57.600Z,9.80
2022-11-17T04:59:25.927Z,9.80
2022-11-17T05:01:53.835Z,9.90
2022-11-17T05:04:37.136Z,9.90
2022-11-17T05:07:05.805Z,9.90
2022-11-17T05:09:33.821Z,9.90
2022-11-17T05:12:18.960Z,9.90
2022-11-17T05:14:50.092Z,9.90
2022-11-17T05:17:17.442Z,9.90
2022-11-17T05:19:48.164Z,9.90
2022-11-17T05:22:35.305Z,9.90
2022-11-17T05:25:03.354Z,9.90
2022-11-17T05:27:31.369Z,9.90
2022-11-17T05:29:59.230Z,9.90
2022-11-17T05:32:27.145Z,9.90
2022-11-17T05:34:56.460Z,9.90
2022-11-17T05:37:24.339Z,9.80
2022-11-17T05:39:52.227Z,9.80
2022-11-17T05:42:20.153Z,9.80
2022-11-17T05:44:48.914Z,9.80
2022-11-17T05:47:16.860Z,9.80
2022-11-17T05:49:44.718Z,9.80
2022-11-17T05:52:13.922Z,9.80
2022-11-17T05:54:41.806Z,9.80
2022-11-17T05:57:13.318Z,9.80
2022-11-17T05:59:46.590Z,9.80
2022-11-17T06:02:18.349Z,9.80
2022-11-17T06:04:47.190Z,9.80
2022-11-17T06:07:17.926Z,9.80
2022-11-17T06:09:47.675Z,9.80
2022-11-17T06:12:15.755Z,9.80
2022-11-17T06:14:43.719Z,9.80
2022-11-17T06:17:22.104Z,9.70
2022-11-17T06:19:54.853Z,9.70
2022-11-17T06:22:25.352Z,9.70
2022-11-17T06:24:53.607Z,9.70
2022-11-17T06:27:21.656Z,9.70
2022-11-17T06:29:50.368Z,9.70
2022-11-17T06:32:20.838Z,9.70
2022-11-17T06:34:55.676Z,9.70
2022-11-17T06:37:26.061Z,9.70
2022-11-17T06:39:54.122Z,9.70
2022-11-17T06:42:42.801Z,9.70
2022-11-17T06:45:11.819Z,9.70
2022-11-17T06:47:39.742Z,9.70
2022-11-17T06:50:09.129Z,9.80
2022-11-17T06:52:41.716Z,9.80
2022-11-17T06:55:10.134Z,9.80
2022-11-17T06:57:38.260Z,9.80
2022-11-17T07:00:07.255Z,9.80
2022-11-17T07:02:36.662Z,9.70
2022-11-17T07:05:04.733Z,9.70
2022-11-17T07:07:32.737Z,9.70
2022-11-17T07:10:02.033Z,9.70
2022-11-17T07:12:30.231Z,9.60
2022-11-17T07:14:58.309Z,9.60
2022-11-17T07:17:26.283Z,9.60
2022-11-17T07:19:54.965Z,9.70
2022-11-17T07:22:22.852Z,9.80
2022-11-17T07:24:51.158Z,9.90
2022-11-17T07:27:20.534Z,10.00
2022-11-17T07:29:48.458Z,10.10
2022-11-17T07:32:16.485Z,10.20
2022-11-17T07:34:44.427Z,10.30
2022-11-17T07:37:12.379Z,10.40
2022-11-17T07:39:40.400Z,10.40
2022-11-17T07:42:08.456Z,10.50
2022-11-17T07:44:37.865Z,10.50
2022-11-17T07:47:06.233Z,10.50
2022-11-17T07:49:34.243Z,10.50
2022-11-17T07:52:02.426Z,10.50
2022-11-17T07:54:30.343Z,10.50
2022-11-17T07:56:58.320Z,10.50
2022-11-17T07:59:26.270Z,10.50
2022-11-17T08:01:55.528Z,10.50
2022-11-17T08:04:23.479Z,10.50
2022-11-17T08:06:51.455Z,10.50
2022-11-17T08:09:19.428Z,10.50
2022-11-17T08:11:47.432Z,10.50
2022-11-17T08:14:15.405Z,10.50
2022-11-17T08:16:43.343Z,10.50
2022-11-17T08:19:14.360Z,10.50
2022-11-17T08:21:42.439Z,10.50
2022-11-17T08:24:12.755Z,10.50
2022-11-17T08:26:41.132Z,10.50
2022-11-17T08:29:09.102Z,10.50
2022-11-17T08:31:37.070Z,10.60
2022-11-17T08:34:04.959Z,10.60
2022-11-17T08:36:34.235Z,10.60
2022-11-17T08:39:02.310Z,10.60
2022-11-17T08:41:30.283Z,10.70
2022-11-17T08:43:58.260Z,10.70
2022-11-17T08:46:27.080Z,10.80
2022-11-17T08:48:57.141Z,10.80
2022-11-17T08:51:27.207Z,10.90
2022-11-17T08:53:56.835Z,10.90
2022-11-17T08:56:24.774Z,11.00
2022-11-17T08:58:52.716Z,11.00
2022-11-17T09:01:20.694Z,11.10
2022-11-17T09:03:49.284Z,11.10
2022-11-17T09:06:17.820Z,11.20
2022-11-17T09:08:47.455Z,11.20
2022-11-17T09:11:17.577Z,11.20
2022-11-17T09:13:46.939Z,11.30
2022-11-17T09:16:16.185Z,11.30
2022-11-17T09:18:44.944Z,11.30
2022-11-17T09:21:15.149Z,11.30
2022-11-17T09:23:43.351Z,11.40
2022-11-17T09:26:13.454Z,11.50
2022-11-17T09:28:43.970Z,11.50
2022-11-17T09:31:13.853Z,11.50
2022-11-17T09:33:43.003Z,11.60
2022-11-17T09:36:12.467Z,11.70
2022-11-17T09:38:41.181Z,11.70
2022-11-17T09:41:23.603Z,11.70
2022-11-17T09:44:00.104Z,11.70
2022-11-17T09:46:34.592Z,11.70
2022-11-17T09:49:08.706Z,11.70
2022-11-17T09:51:39.337Z,11.70
2022-11-17T09:54:16.655Z,11.80
2022-11-17T09:56:47.382Z,11.80
2022-11-17T09:59:20.503Z,11.90
2022-11-17T10:01:48.538Z,11.90
2022-11-17T10:04:18.523Z,12.00
2022-11-17T10:06:48.316Z,12.00
2022-11-17T10:09:25.695Z,12.00
2022-11-17T10:11:55.367Z,12.00
2022-11-17T10:14:29.113Z,12.00
2022-11-17T10:16:58.720Z,12.00
2022-11-17T10:19:28.540Z,11.90
2022-11-17T10:22:16.428Z,11.90
2022-11-17T10:24:48.024Z,11.90
2022-11-17T10:27:25.049Z,11.90
2022-11-17T10:30:02.480Z,12.00
2022-11-17T10:32:32.718Z,12.00
2022-11-17T10:35:15.267Z,12.10
2022-11-17T10:37:52.132Z,12.20
2022-11-17T10:40:25.343Z,12.30
2022-11-17T10:43:04.119Z,12.50
2022-11-17T10:45:34.350Z,12.80
2022-11-17T10:48:32.736Z,13.40
2022-11-17T10:51:02.074Z,13.60
2022-11-17T10:53:41.357Z,13.90
2022-11-17T10:56:15.579Z,13.90
2022-11-17T10:58:59.369Z,13.70
2022-11-17T11:01:35.048Z,13.70
2022-11-17T11:04:03.839Z,13.70
2022-11-17T11:06:32.923Z,13.60
2022-11-17T11:09:05.677Z,13.50
2022-11-17T11:11:45.936Z,13.30
2022-11-17T11:14:19.506Z,13.20
2022-11-17T11:16:50.702Z,13.10
2022-11-17T11:19:21.082Z,13.00
2022-11-17T11:22:29.171Z,13.80
2022-11-17T11:25:05.912Z,16.30
2022-11-17T11:27:53.084Z,18.10
2022-11-17T11:30:21.296Z,19.90
2022-11-17T11:33:04.284Z,20.60
2022-11-17T11:35:43.526Z,21.10
2022-11-17T11:38:33.276Z,21.40
2022-11-17T11:41:15.668Z,20.80
2022-11-17T11:43:56.002Z,20.20
2022-11-17T11:46:36.113Z,19.30
2022-11-17T11:49:15.603Z,18.50
2022-11-17T11:51:44.573Z,18.20
2022-11-17T11:54:17.356Z,17.70
2022-11-17T11:56:46.841Z,17.10
2022-11-17T11:59:20.209Z,17.30
2022-11-17T12:01:54.094Z,17.40
2022-11-17T12:04:32.086Z,17.50
2022-11-17T12:07:06.735Z,17.20
2022-11-17T12:09:50.022Z,16.70
2022-11-17T12:12:21.423Z,16.10
2022-11-17T12:15:12.960Z,15.60
2022-11-17T12:18:00.341Z,15.10
2022-11-17T12:20:57.651Z,15.00
2022-11-17T12:23:35.712Z,15.70
2022-11-17T12:26:04.708Z,17.40
2022-11-17T12:28:35.786Z,18.40
2022-11-17T12:31:09.740Z,18.60
2022-11-17T12:34:22.555Z,19.00
2022-11-17T12:37:18.821Z,18.90
2022-11-17T12:39:55.978Z,18.90
2022-11-17T12:42:24.199Z,18.60
2022-11-17T12:45:03.047Z,18.10
2022-11-17T12:47:32.929Z,17.40
2022-11-17T12:50:33.465Z,17.00
2022-11-17T12:53:31.119Z,16.50
2022-11-17T12:56:31.639Z,16.00
2022-11-17T12:59:24.899Z,15.70
2022-11-17T13:01:59.289Z,15.50
2022-11-17T13:04:34.641Z,15.50
2022-11-17T13:07:04.636Z,15.40
2022-11-17T13:09:34.362Z,15.40
2022-11-17T13:12:05.120Z,15.40
2022-11-17T13:14:36.497Z,15.40
2022-11-17T13:17:04.822Z,15.40
2022-11-17T13:19:38.590Z,15.40
2022-11-17T13:22:14.846Z,15.50
2022-11-17T13:24:44.211Z,15.80
2022-11-17T13:27:23.136Z,15.90
2022-11-17T13:29:52.905Z,16.00
2022-11-17T13:32:23.816Z,16.00
2022-11-17T13:34:53.804Z,15.80
2022-11-17T13:37:23.823Z,15.70
2022-11-17T13:40:00.639Z,15.60
2022-11-17T13:42:32.686Z,15.50
2022-11-17T13:45:05.833Z,15.40
2022-11-17T13:47:46.431Z,15.40
2022-11-17T13:50:34.505Z,15.30
2022-11-17T13:53:06.207Z,15.10
2022-11-17T13:55:35.359Z,15.00
2022-11-17T13:58:06.403Z,14.90
2022-11-17T14:00:35.832Z,14.80
2022-11-17T14:03:06.090Z,14.70
2022-11-17T14:05:34.801Z,14.60
2022-11-17T14:08:14.056Z,14.50
2022-11-17T14:10:42.687Z,14.40
2022-11-17T14:13:22.045Z,14.40
2022-11-17T14:15:57.238Z,14.40
2022-11-17T14:18:30.564Z,14.40
2022-11-17T14:21:10.053Z,14.30
2022-11-17T14:23:38.392Z,14.30
2022-11-17T14:26:07.096Z,14.20
2022-11-17T14:28:35.012Z,14.20
2022-11-17T14:31:05.486Z,14.20
2022-11-17T14:33:33.414Z,14.20
2022-11-17T14:36:01.358Z,14.10
2022-11-17T14:38:29.827Z,14.10
2022-11-17T14:40:57.779Z,14.00
2022-11-17T14:43:25.684Z,14.00
2022-11-17T14:45:54.064Z,14.00
2022-11-17T14:48:23.371Z,13.90
2022-11-17T14:50:57.131Z,13.90
2022-11-17T14:53:25.473Z,13.80
2022-11-17T14:55:53.702Z,13.80
2022-11-17T14:58:21.841Z,13.70
2022-11-17T15:00:49.752Z,13.70
2022-11-17T15:03:17.722Z,13.60
2022-11-17T15:05:47.275Z,13.50
2022-11-17T15:08:15.282Z,13.50
2022-11-17T15:10:46.847Z,13.40
2022-11-17T15:13:14.767Z,13.40
2022-11-17T15:15:42.815Z,13.30
2022-11-17T15:18:12.475Z,13.30
2022-11-17T15:20:40.343Z,13.20
2022-11-17T15:23:09.585Z,13.20
2022-11-17T15:25:39.273Z,13.10
2022-11-17T15:28:07.196Z,13.10
2022-11-17T15:30:35.136Z,13.10
2022-11-17T15:33:03.090Z,13.10
2022-11-17T15:35:31.583Z,13.10
2022-11-17T15:37:59.437Z,13.00
2022-11-17T15:40:28.762Z,13.00
2022-11-17T15:42:56.746Z,13.00
2022-11-17T15:45:24.982Z,12.90
2022-11-17T15:47:52.902Z,12.90
2022-11-17T15:50:20.759Z,12.80
2022-11-17T15:53:03.407Z,12.80
2022-11-17T15:55:35.086Z,12.80
2022-11-17T15:58:02.983Z,12.80
2022-11-17T16:00:33.180Z,12.70
2022-11-17T16:03:01.103Z,12.70
2022-11-17T16:05:28.962Z,12.70
2022-11-17T16:07:56.939Z,12.60
2022-11-17T16:10:24.857Z,12.60
2022-11-17T16:12:54.096Z,12.50
2022-11-17T16:15:22.018Z,12.50
2022-11-17T16:17:49.998Z,12.40
2022-11-17T16:20:18.480Z,12.30
2022-11-17T16:22:46.490Z,12.30
2022-11-17T16:25:14.589Z,12.30
2022-11-17T16:27:42.488Z,12.20
2022-11-17T16:30:13.229Z,12.20
2022-11-17T16:32:41.170Z,12.10
2022-11-17T16:35:09.373Z,12.10
2022-11-17T16:37:37.694Z,12.00
2022-11-17T16:40:06.338Z,12.00
2022-11-17T16:42:34.295Z,12.00
2022-11-17T16:45:02.251Z,12.00
2022-11-17T16:47:32.952Z,12.00
2022-11-17T16:50:00.814Z,12.00
2022-11-17T16:52:28.786Z,11.90
2022-11-17T16:55:01.790Z,12.00
2022-11-17T16:57:32.512Z,11.90
2022-11-17T17:00:00.502Z,11.90
2022-11-17T17:02:28.429Z,11.80
2022-11-17T17:04:57.770Z,11.80
2022-11-17T17:07:25.746Z,11.80
2022-11-17T17:09:53.790Z,11.80
2022-11-17T17:12:21.732Z,11.80
2022-11-17T17:14:49.602Z,11.80
2022-11-17T17:17:17.526Z,11.80
2022-11-17T17:19:45.455Z,11.80
2022-11-17T17:22:14.648Z,11.80
2022-11-17T17:24:42.714Z,11.80
2022-11-17T17:27:10.645Z,11.80
2022-11-17T17:29:38.556Z,11.90
2022-11-17T17:32:06.548Z,11.90
2022-11-17T17:34:34.428Z,12.00
2022-11-17T17:37:02.329Z,12.10
2022-11-17T17:39:31.601Z,12.10
2022-11-17T17:41:59.464Z,12.20
2022-11-17T17:44:27.318Z,12.30
2022-11-17T17:46:57.201Z,12.40
2022-11-17T17:49:25.109Z,12.40
2022-11-17T17:51:53.610Z,12.40
2022-11-17T17:54:23.959Z,12.50
2022-11-17T17:56:53.690Z,12.50
2022-11-17T17:59:21.602Z,12.50
2022-11-17T18:01:49.638Z,12.50
2022-11-17T18:04:17.784Z,12.60
2022-11-17T18:06:47.901Z,12.60
2022-11-17T18:09:19.464Z,12.60
2022-11-17T18:11:49.868Z,12.60
2022-11-17T18:14:24.126Z,12.50
2022-11-17T18:16:52.998Z,12.60
2022-11-17T18:19:21.034Z,12.50
2022-11-17T18:21:48.946Z,12.60
2022-11-17T18:24:16.941Z,12.50
2022-11-17T18:26:44.840Z,12.60
2022-11-17T18:29:15.238Z,12.50
2022-11-17T18:31:46.719Z,12.50
2022-11-17T18:34:16.914Z,12.50
2022-11-17T18:36:44.887Z,12.50
2022-11-17T18:39:12.800Z,12.40
2022-11-17T18:41:41.132Z,12.40
2022-11-17T18:44:09.207Z,12.40
2022-11-17T18:46:37.093Z,12.40
2022-11-17T18:49:06.284Z,12.40
2022-11-17T18:51:34.574Z,12.50
2022-11-17T18:54:03.858Z,12.50
2022-11-17T18:56:34.043Z,12.40
2022-11-17T18:59:02.644Z,12.50
2022-11-17T19:01:31.494Z,12.50
2022-11-17T19:04:01.276Z,12.40
2022-11-17T19:06:31.045Z,12.40
2022-11-17T19:09:00.035Z,12.40
2022-11-17T19:11:30.606Z,12.40
2022-11-17T19:14:02.113Z,12.30
2022-11-17T19:16:31.758Z,12.30
2022-11-17T19:19:00.437Z,12.30
2022-11-17T19:21:31.643Z,12.20
2022-11-17T19:24:01.734Z,12.20
2022-11-17T19:26:31.190Z,12.20
2022-11-17T19:29:01.755Z,12.10
2022-11-17T19:31:30.256Z,12.10
2022-11-17T19:33:59.090Z,12.00
2022-11-17T19:36:29.364Z,12.10
2022-11-17T19:39:00.355Z,12.10
2022-11-17T19:41:30.020Z,12.10
2022-11-17T19:43:59.750Z,12.10
2022-11-17T19:46:29.187Z,12.20
2022-11-17T19:48:57.726Z,12.20
2022-11-17T19:51:27.227Z,12.30
2022-11-17T19:53:56.470Z,12.30
2022-11-17T19:56:26.815Z,12.30
2022-11-17T19:58:56.238Z,12.30
2022-11-17T20:01:26.186Z,12.30
2022-11-17T20:03:54.571Z,12.30
2022-11-17T20:06:26.986Z,12.30
2022-11-17T20:08:55.365Z,12.30
2022-11-17T20:11:26.821Z,12.30
2022-11-17T20:13:55.238Z,12.30
2022-11-17T20:16:25.380Z,12.20
2022-11-17T20:18:55.255Z,12.20
2022-11-17T20:21:24.008Z,12.20
2022-11-17T20:23:52.144Z,12.10
2022-11-17T20:26:21.954Z,12.10
2022-11-17T20:28:52.172Z,12.10
2022-11-17T20:31:22.272Z,12.00
2022-11-17T20:33:50.365Z,12.00
2022-11-17T20:36:20.160Z,12.00
2022-11-17T20:38:50.974Z,11.90
2022-11-17T20:41:20.822Z,11.90
2022-11-17T20:43:49.697Z,11.90
2022-11-17T20:46:19.457Z,11.90
2022-11-17T20:48:47.357Z,11.90
2022-11-17T20:51:17.128Z,11.90
2022-11-17T20:53:45.330Z,11.90
2022-11-17T20:56:16.019Z,11.80
2022-11-17T20:58:44.612Z,11.80
2022-11-17T21:01:19.940Z,11.70
2022-11-17T21:03:49.789Z,11.70
2022-11-17T21:06:17.828Z,11.70
2022-11-17T21:08:46.959Z,11.70
2022-11-17T21:11:36.697Z,11.70
2022-11-17T21:14:05.724Z,11.60
2022-11-17T21:16:33.878Z,11.60
2022-11-17T21:19:03.214Z,11.60
2022-11-17T21:21:31.403Z,11.60
2022-11-17T21:23:59.678Z,11.60
2022-11-17T21:26:27.880Z,11.50
2022-11-17T21:28:58.452Z,11.50
2022-11-17T21:31:31.282Z,11.50
2022-11-17T21:34:00.558Z,11.40
2022-11-17T21:36:31.636Z,11.40
2022-11-17T21:39:00.262Z,11.40
2022-11-17T21:41:29.443Z,11.40
2022-11-17T21:44:00.497Z,11.40
2022-11-17T21:46:30.128Z,11.30
2022-11-17T21:49:01.172Z,11.30
2022-11-17T21:51:33.282Z,11.30
2022-11-17T21:54:03.206Z,11.30
2022-11-17T21:56:32.160Z,11.30
2022-11-17T21:59:01.995Z,11.20
2022-11-17T22:01:30.907Z,11.20
2022-11-17T22:03:59.031Z,11.20
2022-11-17T22:06:27.460Z,11.10
2022-11-17T22:08:57.595Z,11.10
2022-11-17T22:11:37.175Z,11.10
2022-11-17T22:14:07.555Z,11.10
2022-11-17T22:16:36.162Z,11.10
2022-11-17T22:19:04.769Z,11.10
2022-11-17T22:21:32.838Z,11.10
2022-11-17T22:24:02.180Z,11.10
2022-11-17T22:26:31.624Z,11.10
2022-11-17T22:28:59.978Z,11.10
2022-11-17T22:31:27.920Z,11.10
2022-11-17T22:33:55.821Z,11.10
2022-11-17T22:36:23.740Z,11.10
2022-11-17T22:38:52.822Z,11.10
2022-11-17T22:41:23.395Z,11.00
2022-11-17T22:43:52.057Z,11.00
2022-11-17T22:46:21.086Z,11.00
2022-11-17T22:48:49.294Z,10.90
2022-11-17T22:51:38.500Z,10.90
2022-11-17T22:54:07.755Z,10.90
2022-11-17T22:56:37.369Z,10.80
2022-11-17T22:59:05.403Z,10.70
2022-11-17T23:01:33.448Z,10.70
2022-11-17T23:04:01.359Z,10.60
2022-11-17T23:06:29.318Z,10.50
2022-11-17T23:08:58.211Z,10.50
2022-11-17T23:11:41.898Z,10.50
2022-11-17T23:14:14.347Z,10.50
2022-11-17T23:16:43.054Z,10.50
2022-11-17T23:19:13.799Z,10.50
2022-11-17T23:21:42.294Z,10.50
2022-11-17T23:24:12.653Z,10.50
2022-11-17T23:26:40.967Z,10.50
2022-11-17T23:29:10.268Z,10.40
2022-11-17T23:31:39.529Z,10.40
2022-11-17T23:34:09.513Z,10.40
2022-11-17T23:36:37.417Z,10.40
2022-11-17T23:39:05.721Z,10.40
2022-11-17T23:41:33.737Z,10.40
2022-11-17T23:44:01.767Z,10.40
2022-11-17T23:46:29.687Z,10.40
2022-11-17T23:48:58.973Z,10.40
2022-11-17T23:51:29.753Z,10.40
2022-11-17T23:53:59.320Z,10.40
2022-11-17T23:56:27.441Z,10.40
2022-11-17T23:58:55.352Z,10.40
